Time;durP1;ratioP1;P1;durP2;ratioP2;P2;SDS_P1;SDS_P2;PMS_P1;PMS_P2;Temp;Humidity;BMP_temperature;BMP_pressure;BME280_temperature;BME280_humidity;BME280_pressure;Samples;Min_cycle;Max_cycle;Signal;HPM_P1;HPM_P2
2022/06/08 00:02:08;;;;;;;26.45;22.10;;;;;;;17.13;76.79;99915.08;2227530;79;28628;-72
2022/06/08 00:05:11;;;;;;;26.60;20.65;;;;;;;17.13;76.84;99913.73;2227475;79;31027;-71
2022/06/08 00:08:14;;;;;;;23.67;20.97;;;;;;;17.13;76.92;99912.38;2227257;79;32961;-70
2022/06/08 00:11:16;;;;;;;27.05;21.35;;;;;;;17.14;77.02;99905.98;2227257;79;29765;-71
2022/06/08 00:14:19;;;;;;;25.17;20.75;;;;;;;17.13;77.01;99902.91;2227012;79;27896;-70
2022/06/08 00:17:21;;;;;;;24.00;21.40;;;;;;;17.13;77.05;99902.91;2227558;79;28719;-71
2022/06/08 00:20:27;;;;;;;29.52;21.10;;;;;;;17.12;77.08;99902.06;2226991;79;32249;-70
2022/06/08 00:23:29;;;;;;;26.57;21.35;;;;;;;17.13;77.12;99898.84;2227530;79;32979;-70
2022/06/08 00:26:32;;;;;;;31.97;23.00;;;;;;;17.14;77.14;99903.27;2227464;79;30139;-71
2022/06/08 00:29:34;;;;;;;32.15;23.00;;;;;;;17.14;77.21;99893.32;2228043;79;27619;-70
2022/06/08 00:32:36;;;;;;;30.35;23.73;;;;;;;17.13;77.24;99888.02;2227664;79;28808;-71
2022/06/08 00:35:38;;;;;;;27.20;21.70;;;;;;;17.13;77.22;99886.66;2227531;79;31381;-69
2022/06/08 00:38:40;;;;;;;28.80;23.60;;;;;;;17.12;77.26;99885.81;2224479;79;33817;-70
2022/06/08 00:41:55;;;;;;;26.62;22.25;;;;;;;17.12;77.22;99884.47;2217293;80;29696;-70
2022/06/08 00:44:59;;;;;;;;;;;;;;;17.13;77.29;99877.19;2219733;80;27662;-71
2022/06/08 00:48:04;;;;;;;26.17;21.48;;;;;;;17.12;77.40;99883.11;2217327;80;28662;-71
2022/06/08 00:51:06;;;;;;;25.10;21.27;;;;;;;17.08;77.38;99874.88;2217250;80;31825;-68
2022/06/08 00:54:12;;;;;;;25.08;22.30;;;;;;;17.08;77.43;99877.59;2217233;80;32999;-71
2022/06/08 00:57:39;;;;;;;26.12;21.62;;;;;;;17.08;77.43;99876.23;2217526;80;29546;-70
2022/06/08 01:00:43;;;;;;;26.27;21.57;;;;;;;17.08;77.50;99873.52;2217240;80;28142;-71
2022/06/08 01:03:45;;;;;;;25.02;21.33;;;;;;;17.08;77.44;99873.52;2217386;80;32782;-70
2022/06/08 01:06:54;;;;;;;26.23;20.57;;;;;;;17.07;77.52;99874.51;2216876;80;32254;-71
2022/06/08 01:09:56;;;;;;;23.52;19.95;;;;;;;17.07;77.52;99875.86;2190264;80;33429;-70
2022/06/08 01:13:04;;;;;;;25.30;21.77;;;;;;;17.07;77.52;99872.31;2190260;80;30716;-70
2022/06/08 01:16:06;;;;;;;27.25;21.93;;;;;;;17.07;77.60;99872.31;2216415;80;27685;-71
2022/06/08 01:19:08;;;;;;;26.33;20.68;;;;;;;17.06;77.67;99878.20;2217162;80;28727;-71
2022/06/08 01:22:14;;;;;;;25.60;21.07;;;;;;;17.06;77.66;99876.84;2217133;80;31063;-71
2022/06/08 01:25:16;;;;;;;23.65;20.55;;;;;;;17.04;77.65;99870.73;2216726;80;33059;-70
2022/06/08 01:28:26;;;;;;;24.00;20.40;;;;;;;17.04;77.68;99865.80;2216859;80;30545;-71
2022/06/08 01:32:05;;;;;;;23.70;21.15;;;;;;;17.04;77.76;99865.80;2216996;79;27580;-70
2022/06/08 01:35:24;;;;;;;25.88;20.70;;;;;;;17.01;77.78;99855.59;2216861;80;29900;-72
2022/06/08 01:38:49;;;;;;;24.45;21.25;;;;;;;17.01;77.78;99859.66;2216872;79;31070;-72
2022/06/08 01:42:18;;;;;;;23.15;20.17;;;;;;;17.01;77.82;99852.05;2159049;82;34364;-72
2022/06/08 01:45:45;;;;;;;24.60;21.93;;;;;;;16.99;77.82;99851.31;2159255;82;29243;-71
2022/06/08 01:49:20;;;;;;;27.27;22.70;;;;;;;16.97;77.82;99859.53;2146447;82;27769;-70
2022/06/08 01:52:52;;;;;;;22.27;19.87;;;;;;;16.95;77.82;99856.13;1976058;89;29305;-71
2022/06/08 01:55:59;;;;;;;29.40;21.17;;;;;;;16.92;77.86;99851.41;1950817;91;31134;-73
2022/06/08 01:59:30;;;;;;;29.57;21.75;;;;;;;16.91;77.84;99849.69;2030029;87;32970;-72
2022/06/08 02:02:57;;;;;;;26.42;20.02;;;;;;;16.88;77.70;99850.81;2001634;88;29739;-71
2022/06/08 02:06:19;;;;;;;24.00;20.40;;;;;;;16.85;77.95;99853.30;2001825;88;27753;-73
2022/06/08 02:09:35;;;;;;;27.80;20.95;;;;;;;16.83;77.90;99848.98;2001710;88;28675;-72
2022/06/08 02:12:42;;;;;;;25.97;21.60;;;;;;;16.81;77.90;99853.66;2003428;87;31070;-72
2022/06/08 02:15:47;;;;;;;28.27;20.52;;;;;;;16.78;77.89;99848.02;2008918;88;32981;-73
2022/06/08 02:19:11;;;;;;;28.17;20.80;;;;;;;16.76;77.91;99851.34;2018064;88;30090;-70
2022/06/08 02:22:27;;;;;;;25.02;19.50;;;;;;;16.74;77.94;99852.47;1974526;90;27722;-71
2022/06/08 02:25:36;;;;;;;24.95;18.75;;;;;;;16.71;77.96;99847.67;1967120;87;30014;-71
2022/06/08 02:28:46;;;;;;;22.58;18.48;;;;;;;16.66;78.01;99843.13;2062057;86;31704;-70
2022/06/08 02:34:27;;;;;;;25.77;20.57;;;;;;;16.66;78.01;99843.13;2076193;85;33434;-72
2022/06/08 02:35:16;;;;;;;27.25;22.70;;;;;;;16.64;77.93;99845.09;2095646;82;29393;-73
2022/06/08 02:38:22;;;;;;;23.10;20.00;;;;;;;16.61;77.92;99845.38;2160091;80;27740;-72
2022/06/08 02:41:25;;;;;;;24.43;20.62;;;;;;;16.58;77.99;99837.51;2216969;79;28604;-71
2022/06/08 02:44:29;;;;;;;23.50;21.00;;;;;;;16.56;78.00;99843.02;2190427;80;31998;-72
2022/06/08 02:47:35;;;;;;;25.50;22.07;;;;;;;16.54;78.09;99840.97;2189950;80;36661;-72
2022/06/08 02:50:39;;;;;;;24.45;20.37;;;;;;;16.54;78.11;99837.38;2217115;80;29911;-71
2022/06/08 02:53:49;;;;;;;22.52;20.15;;;;;;;16.52;78.07;99844.28;2190829;80;27725;-72
2022/06/08 02:57:02;;;;;;;22.65;19.80;;;;;;;16.52;78.10;99844.77;2216792;80;29652;-73
2022/06/08 03:00:39;;;;;;;22.17;18.80;;;;;;;16.51;78.17;99841.21;2217110;80;30944;-72
2022/06/08 03:03:50;;;;;;;23.67;20.60;;;;;;;16.52;78.26;99848.81;2216937;80;33656;-72
2022/06/08 03:07:03;;;;;;;26.85;21.95;;;;;;;16.51;78.31;99847.09;2217651;80;29939;-72
2022/06/08 03:10:09;;;;;;;22.48;19.95;;;;;;;16.51;78.34;99843.04;2216978;80;28066;-71
2022/06/08 03:13:18;;;;;;;28.38;20.97;;;;;;;16.51;78.40;99846.62;2217197;80;29123;-71
2022/06/08 03:16:39;;;;;;;25.70;21.27;;;;;;;16.53;78.48;99851.89;2217410;80;31850;-71
2022/06/08 03:19:41;;;;;;;24.10;20.97;;;;;;;16.52;78.52;99847.47;2217213;80;33760;-70
2022/06/08 03:22:42;;;;;;;27.85;20.52;;;;;;;16.52;78.59;99841.58;2216774;80;30155;-70
2022/06/08 03:25:45;;;;;;;25.90;20.10;;;;;;;16.54;78.62;99849.08;2217287;80;27853;-71
2022/06/08 03:28:47;;;;;;;26.15;21.55;;;;;;;16.55;78.60;99844.52;2216928;80;29700;-70
2022/06/08 03:31:49;;;;;;;24.05;20.52;;;;;;;16.58;78.60;99848.80;2217379;80;31024;-72
2022/06/08 03:34:51;;;;;;;26.20;21.10;;;;;;;16.60;78.70;99852.23;2217208;80;34173;-71
2022/06/08 03:37:53;;;;;;;26.20;21.57;;;;;;;16.63;78.80;99853.34;2217379;80;30086;-71
2022/06/08 03:40:55;;;;;;;26.87;21.95;;;;;;;16.66;78.83;99853.09;2230880;79;27783;-71
2022/06/08 03:43:58;;;;;;;27.40;21.73;;;;;;;16.68;78.87;99854.68;2236997;79;29268;-70
2022/06/08 03:47:08;;;;;;;27.22;23.15;;;;;;;16.70;78.87;99853.22;2237145;79;31023;-71
2022/06/08 03:50:16;;;;;;;28.02;22.82;;;;;;;16.71;78.91;99854.44;2235983;79;33860;-71
2022/06/08 03:53:23;;;;;;;34.18;25.48;;;;;;;16.76;78.96;99859.97;2237147;79;29453;-70
2022/06/08 03:56:26;;;;;;;29.42;23.45;;;;;;;16.78;79.05;99862.05;2237185;79;27682;-71
2022/06/08 03:59:28;;;;;;;24.30;21.10;;;;;;;16.82;79.06;99861.66;2237295;79;28653;-70
2022/06/08 04:02:30;;;;;;;27.75;22.22;;;;;;;16.88;79.21;99862.99;2236932;79;32250;-70
2022/06/08 04:05:33;;;;;;;27.85;23.27;;;;;;;16.94;79.25;99861.62;2236919;79;34222;-70
2022/06/08 04:08:37;;;;;;;30.02;23.75;;;;;;;17.00;79.17;99863.34;2237054;79;29834;-69
2022/06/08 04:11:38;;;;;;;25.77;22.93;;;;;;;17.06;79.15;99862.48;2237140;79;27723;-70
2022/06/08 04:14:40;;;;;;;28.67;22.87;;;;;;;17.12;79.12;99859.27;2236802;79;29003;-70
2022/06/08 04:17:42;;;;;;;26.45;21.93;;;;;;;17.15;78.97;99861.69;2236887;79;32193;-70
2022/06/08 04:20:48;;;;;;;27.20;22.30;;;;;;;17.18;78.92;99856.02;2236830;79;34180;-71
2022/06/08 04:23:51;;;;;;;26.82;22.62;;;;;;;17.21;78.95;99855.77;2237151;79;29355;-70
2022/06/08 04:26:53;;;;;;;26.80;22.90;;;;;;;17.28;79.10;99856.09;2237240;79;27681;-72
2022/06/08 04:29:55;;;;;;;26.35;22.87;;;;;;;17.37;79.20;99856.68;2237165;79;29258;-71
2022/06/08 04:32:57;;;;;;;32.45;23.18;;;;;;;17.47;79.20;99856.72;2236811;79;31481;-71
2022/06/08 04:36:00;;;;;;;27.98;21.62;;;;;;;17.58;79.10;99853.09;2237102;79;33375;-72
2022/06/08 04:39:06;;;;;;;25.08;22.32;;;;;;;17.67;79.05;99845.55;2237009;79;30144;-70
2022/06/08 04:42:08;;;;;;;26.02;21.45;;;;;;;17.80;78.92;99843.11;2236513;79;27666;-72
2022/06/08 04:45:11;;;;;;;25.43;21.77;;;;;;;17.92;78.92;99844.73;2237102;79;29600;-71
2022/06/08 04:48:16;;;;;;;25.12;21.77;;;;;;;18.04;78.91;99846.38;2237056;79;31041;-71
2022/06/08 04:51:18;;;;;;;27.00;21.97;;;;;;;18.15;78.70;99845.95;2236758;79;33833;-70
2022/06/08 04:54:20;;;;;;;25.48;21.27;;;;;;;18.27;78.53;99850.27;2237070;79;29368;-70
2022/06/08 04:57:22;;;;;;;26.35;21.07;;;;;;;18.36;78.21;99848.58;2236908;79;28028;-72
2022/06/08 05:00:25;;;;;;;24.70;20.95;;;;;;;18.47;78.18;99848.98;2236737;79;29927;-70
2022/06/08 05:03:30;;;;;;;24.67;21.37;;;;;;;18.56;77.96;99849.48;2237056;79;31864;-69
2022/06/08 05:06:33;;;;;;;25.37;22.25;;;;;;;18.67;77.88;99852.10;2236838;79;33124;-70
2022/06/08 05:09:36;;;;;;;25.57;21.75;;;;;;;18.80;77.71;99861.83;2236629;79;31456;-65
2022/06/08 05:12:39;;;;;;;24.85;19.12;;;;;;;18.88;77.50;99859.25;2237111;79;27684;-70
2022/06/08 05:15:43;;;;;;;20.95;18.32;;;;;;;18.98;77.43;99854.74;2236952;79;28715;-70
2022/06/08 05:18:45;;;;;;;21.85;19.45;;;;;;;19.12;77.26;99858.03;2237283;79;31010;-69
2022/06/08 05:21:47;;;;;;;24.02;20.27;;;;;;;19.26;77.15;99848.60;2236782;79;33662;-68
2022/06/08 05:24:49;;;;;;;19.20;17.20;;;;;;;19.39;76.83;99845.56;2236780;79;29353;-69
2022/06/08 05:27:51;;;;;;;19.32;17.12;;;;;;;19.53;76.58;99848.34;2237040;79;27671;-71
2022/06/08 05:30:56;;;;;;;20.77;17.77;;;;;;;19.67;76.34;99847.88;2237100;79;28766;-67
2022/06/08 05:33:57;;;;;;;20.85;17.00;;;;;;;19.83;75.99;99850.48;2236933;79;32259;-67
2022/06/08 05:36:59;;;;;;;21.37;17.55;;;;;;;19.95;75.80;99847.13;2237342;79;33172;-68
2022/06/08 05:40:02;;;;;;;16.50;14.83;;;;;;;20.15;75.62;99839.75;2235406;79;30180;-71
2022/06/08 05:43:07;;;;;;;17.55;14.60;;;;;;;20.43;75.37;99843.85;2227372;79;27668;-65
2022/06/08 05:46:09;;;;;;;17.25;14.23;;;;;;;20.74;75.20;99838.08;2227410;79;28888;-70
2022/06/08 05:49:11;;;;;;;16.90;15.10;;;;;;;21.18;74.87;99844.16;2226984;80;31862;-71
2022/06/08 05:52:17;;;;;;;18.73;15.75;;;;;;;21.67;74.53;99840.98;2226942;80;34180;-72
2022/06/08 05:55:21;;;;;;;15.35;13.85;;;;;;;22.15;73.65;99838.19;2227358;79;29485;-71
2022/06/08 05:58:23;;;;;;;15.48;13.78;;;;;;;22.70;73.04;99833.30;2227351;79;35592;-69
2022/06/08 06:01:25;;;;;;;12.18;11.00;;;;;;;23.80;72.87;99829.93;2226888;79;29914;-71
2022/06/08 06:04:27;;;;;;;11.05;9.85;;;;;;;25.35;72.25;99839.45;2227541;79;30791;-72
2022/06/08 06:07:29;;;;;;;11.05;9.98;;;;;;;26.74;69.76;99842.75;2227226;79;33699;-70
2022/06/08 06:10:33;;;;;;;14.30;9.88;;;;;;;27.88;68.59;99835.60;2227381;79;29997;-70
2022/06/08 06:13:36;;;;;;;13.83;12.33;;;;;;;28.99;66.58;99838.47;2227645;79;27639;-70
2022/06/08 06:16:38;;;;;;;10.28;9.23;;;;;;;30.02;64.29;99833.11;2227698;79;29339;-67
2022/06/08 06:19:40;;;;;;;11.70;9.00;;;;;;;30.92;62.34;99816.29;2226914;79;32277;-70
2022/06/08 06:22:42;;;;;;;11.18;9.03;;;;;;;31.85;60.19;99811.09;2226940;79;34284;-72
2022/06/08 06:25:45;;;;;;;10.65;8.53;;;;;;;32.71;58.19;99815.30;2227306;79;29770;-71
2022/06/08 06:28:47;;;;;;;10.00;9.10;;;;;;;33.31;56.58;99815.51;2227050;79;27845;-70
2022/06/08 06:31:57;;;;;;;10.08;9.10;;;;;;;33.76;54.85;99818.30;2227101;79;29896;-71
2022/06/08 06:35:00;;;;;;;11.48;7.85;;;;;;;34.21;52.81;99821.00;2227596;79;31009;-72
2022/06/08 06:38:03;;;;;;;8.73;7.87;;;;;;;34.61;51.19;99827.13;2227570;79;32977;-70
2022/06/08 06:41:07;;;;;;;10.80;7.80;;;;;;;34.75;49.91;99826.30;2227427;79;30142;-70
2022/06/08 06:44:08;;;;;;;8.18;7.37;;;;;;;34.84;48.52;99828.96;2227595;79;27784;-70
2022/06/08 06:47:11;;;;;;;7.85;7.00;;;;;;;34.68;47.62;99825.05;2227603;79;28638;-69
2022/06/08 06:50:16;;;;;;;9.35;6.45;;;;;;;34.48;46.43;99826.03;2227391;79;31908;-70
2022/06/08 06:53:18;;;;;;;9.38;7.03;;;;;;;34.08;45.29;99833.22;2227343;79;33598;-69
2022/06/08 06:56:20;;;;;;;10.18;7.65;;;;;;;33.75;44.78;99827.19;2227166;79;30779;-70
2022/06/08 06:59:22;;;;;;;10.38;7.53;;;;;;;33.73;44.67;99823.80;2227393;79;27663;-69
2022/06/08 07:02:26;;;;;;;7.60;6.33;;;;;;;33.86;44.23;99826.02;2227214;79;29494;-70
2022/06/08 07:05:33;;;;;;;6.70;6.00;;;;;;;34.20;43.69;99826.26;2227272;79;32209;-67
2022/06/08 07:08:36;;;;;;;8.48;6.78;;;;;;;34.27;42.19;99828.90;2227502;79;33582;-69
2022/06/08 07:11:41;;;;;;;7.95;7.25;;;;;;;34.21;42.01;99821.83;2227746;79;29504;-70
2022/06/08 07:14:43;;;;;;;8.70;7.83;;;;;;;34.00;40.98;99814.98;2228042;79;27537;-68
2022/06/08 07:17:45;;;;;;;14.20;7.10;;;;;;;33.86;40.95;99819.08;2227154;79;29055;-66
2022/06/08 07:20:50;;;;;;;9.53;7.97;;;;;;;33.95;40.21;99814.03;2227135;79;32269;-71
2022/06/08 07:23:52;;;;;;;8.53;7.65;;;;;;;33.70;39.97;99810.91;2227576;79;32982;-70
2022/06/08 07:26:54;;;;;;;8.48;6.95;;;;;;;33.25;39.79;99808.98;2226983;79;29466;-71
2022/06/08 07:29:56;;;;;;;7.33;6.62;;;;;;;33.06;40.23;99805.98;2227121;79;27699;-72
2022/06/08 07:32:58;;;;;;;11.22;8.20;;;;;;;33.18;39.34;99798.52;2227171;79;29893;-67
2022/06/08 07:36:02;;;;;;;9.10;8.30;;;;;;;33.46;39.24;99800.64;2227332;79;30957;-68
2022/06/08 07:39:05;;;;;;;8.75;7.95;;;;;;;33.71;40.08;99812.61;2227233;79;33801;-66
2022/06/08 07:42:08;;;;;;;13.55;9.43;;;;;;;34.18;39.50;99808.41;2232331;79;30127;-70
2022/06/08 07:45:11;;;;;;;10.75;9.20;;;;;;;34.18;37.88;99809.80;2237134;79;27586;-71
2022/06/08 07:51:34;;;;;;;8.80;7.15;;;;;;;34.40;37.84;99806.38;2236940;79;32246;-71
2022/06/08 07:54:37;;;;;;;8.20;7.37;;;;;;;34.27;37.96;99802.48;2197191;81;33556;-66
2022/06/08 07:57:39;;;;;;;7.28;6.75;;;;;;;34.20;36.00;99801.23;2197431;81;30155;-66
2022/06/08 08:00:46;;;;;;;8.03;6.50;;;;;;;33.98;35.92;99796.88;2197370;81;27705;-67
2022/06/08 08:03:47;;;;;;;8.55;5.28;;;;;;;33.85;36.76;99797.94;2197128;79;29971;-69
2022/06/08 08:06:50;;;;;;;7.65;5.65;;;;;;;33.76;36.04;99791.34;2197111;80;31904;-65
2022/06/08 08:09:51;;;;;;;6.62;5.78;;;;;;;33.52;34.76;99796.05;2197200;81;32880;-69
2022/06/08 08:12:55;;;;;;;6.65;6.05;;;;;;;33.17;35.00;99796.30;2197169;80;30529;-68
2022/06/08 08:15:57;;;;;;;5.60;5.03;;;;;;;33.15;35.52;99793.47;2197706;81;27625;-71
2022/06/08 08:18:59;;;;;;;5.85;4.50;;;;;;;33.02;35.00;99794.52;2197241;81;29368;-67
2022/06/08 08:22:02;;;;;;;9.45;6.03;;;;;;;32.85;35.63;99788.26;2197114;81;32253;-68
2022/06/08 08:25:06;;;;;;;7.62;6.45;;;;;;;32.83;35.41;99789.59;2197483;80;34125;-66
2022/06/08 08:28:08;;;;;;;7.25;5.85;;;;;;;32.70;35.07;99791.41;2197636;80;29499;-67
2022/06/08 08:31:11;;;;;;;5.92;5.47;;;;;;;32.45;35.20;99788.77;2197316;81;36739;-67
2022/06/08 08:34:14;;;;;;;5.95;4.87;;;;;;;32.38;35.81;99788.03;2197440;81;28730;-69
2022/06/08 08:37:17;;;;;;;5.50;5.10;;;;;;;32.47;36.49;99786.62;2197106;81;32310;-66
2022/06/08 08:40:48;;;;;;;5.58;4.45;;;;;;;32.65;36.01;99789.91;2197333;81;32967;-67
2022/06/08 08:43:47;;;;;;;4.47;3.60;;;;;;;32.78;36.53;99789.41;2196990;80;29797;-69
2022/06/08 08:47:16;;;;;;;4.72;3.37;;;;;;;32.80;35.19;99786.69;2200995;80;28238;-70
2022/06/08 08:50:26;;;;;;;5.05;3.62;;;;;;;32.80;34.54;99789.47;2240930;79;29520;-68
2022/06/08 08:53:39;;;;;;;3.45;3.22;;;;;;;32.86;34.68;99785.78;2201103;80;31872;-69
2022/06/08 08:56:42;;;;;;;9.13;3.47;;;;;;;32.97;34.68;99781.36;2240849;79;34172;-66
2022/06/08 08:59:49;;;;;;;6.03;3.70;;;;;;;32.96;34.14;99779.67;2240718;79;30171;-69
2022/06/08 09:06:26;;;;;;;7.12;3.70;;;;;;;32.76;32.86;99773.53;2199077;81;28715;-67
2022/06/08 09:09:34;;;;;;;4.05;3.75;;;;;;;32.56;32.25;99772.75;2241156;79;31960;-67
2022/06/08 09:12:36;;;;;;;5.22;3.40;;;;;;;32.35;32.40;99771.86;2198912;81;32988;-69
2022/06/08 09:15:50;;;;;;;4.50;3.50;;;;;;;32.37;32.99;99773.31;2240545;79;29494;-67
2022/06/08 09:18:52;;;;;;;3.90;3.27;;;;;;;32.26;33.00;99768.56;2241288;79;27745;-66
2022/06/08 09:22:09;;;;;;;6.00;3.30;;;;;;;32.25;32.97;99777.40;2240688;79;29864;-68
2022/06/08 09:25:31;;;;;;;3.85;3.05;;;;;;;32.10;32.72;99776.40;2239715;79;32282;-65
2022/06/08 09:28:37;;;;;;;5.70;3.72;;;;;;;31.78;32.17;99769.62;2240900;79;32953;-68
2022/06/08 09:31:40;;;;;;;5.67;4.08;;;;;;;31.22;32.65;99775.55;2240926;79;30185;-66
2022/06/08 09:34:45;;;;;;;5.20;3.50;;;;;;;30.99;32.81;99777.52;2241119;79;27627;-70
2022/06/08 09:37:52;;;;;;;2.98;2.70;;;;;;;30.80;32.93;99776.56;2209780;79;30056;-65
2022/06/08 09:41:25;;;;;;;3.52;2.60;;;;;;;30.70;33.60;99769.61;2240954;79;31106;-70
2022/06/08 09:44:42;;;;;;;3.20;2.90;;;;;;;30.73;33.65;99766.41;2239126;79;33535;-69
2022/06/08 09:52:14;;;;;;;4.42;3.25;;;;;;;30.49;32.77;99765.24;2237013;79;27734;-68
2022/06/08 09:55:55;;;;;;;4.58;3.62;;;;;;;30.28;33.26;99762.27;2230193;79;28816;-71
2022/06/08 09:59:39;;;;;;;3.60;3.30;;;;;;;30.12;33.92;99760.84;2236783;79;32254;-70
2022/06/08 10:03:16;;;;;;;9.50;3.42;;;;;;;30.10;33.77;99752.78;2236765;79;33464;-70
2022/06/08 10:07:06;;;;;;;4.92;3.52;;;;;;;29.86;34.02;99747.41;2237051;79;30504;-70
2022/06/08 10:10:28;;;;;;;4.28;2.80;;;;;;;29.68;34.20;99748.95;2237527;79;27715;-69
2022/06/08 10:13:37;;;;;;;5.53;2.52;;;;;;;29.58;34.28;99744.92;2236962;79;28089;-71
2022/06/08 10:16:44;;;;;;;3.72;2.70;;;;;;;29.58;34.36;99747.14;2237096;79;31022;-72
2022/06/08 10:20:13;;;;;;;4.30;2.85;;;;;;;29.46;33.74;99743.34;2236747;79;33256;-71
2022/06/08 10:23:49;;;;;;;4.85;3.08;;;;;;;29.21;33.80;99736.55;2237023;79;29420;-71
2022/06/08 10:27:15;;;;;;;3.10;2.80;;;;;;;28.89;34.05;99740.98;2237124;79;27593;-71
2022/06/08 10:30:38;;;;;;;2.90;2.60;;;;;;;28.78;34.40;99740.55;2236959;79;28650;-70
2022/06/08 10:34:06;;;;;;;5.80;2.60;;;;;;;28.68;34.57;99746.12;2236542;79;32290;-71
2022/06/08 10:37:19;;;;;;;5.30;2.30;;;;;;;28.62;34.37;99740.92;2129345;83;33063;-71
2022/06/08 10:40:37;;;;;;;2.20;2.00;;;;;;;28.65;34.46;99726.73;2129293;83;29346;-71
2022/06/08 10:43:37;;;;;;;2.75;2.30;;;;;;;28.68;34.56;99735.96;2128189;83;27774;-70
2022/06/08 10:46:46;;;;;;;2.65;1.90;;;;;;;28.71;34.40;99732.76;2057662;85;29382;-71
2022/06/08 10:50:03;;;;;;;3.20;1.80;;;;;;;28.73;34.49;99729.30;2080522;85;31024;-71
2022/06/08 10:56:55;;;;;;;3.52;1.98;;;;;;;28.68;33.13;99726.31;2129053;83;30526;-71
2022/06/08 11:00:19;;;;;;;3.35;1.80;;;;;;;28.62;33.46;99726.63;2080602;85;27690;-71
2022/06/08 11:03:33;;;;;;;2.15;1.80;;;;;;;28.58;33.27;99720.34;2068558;85;29478;-71
2022/06/08 11:06:55;;;;;;;1.92;1.70;;;;;;;28.58;33.59;99722.58;2129012;83;31238;-73
2022/06/08 11:10:00;;;;;;;6.60;2.40;;;;;;;28.77;33.72;99722.86;2080230;85;34179;-72
2022/06/08 11:13:14;;;;;;;2.72;1.85;;;;;;;28.96;33.49;99716.48;2080751;82;29333;-67
2022/06/08 11:16:30;;;;;;;3.62;2.27;;;;;;;29.07;34.17;99708.66;2149314;82;35847;-69
2022/06/08 11:19:34;;;;;;;2.50;2.00;;;;;;;29.35;34.31;99713.98;2120598;82;28503;-73
2022/06/08 11:23:05;;;;;;;3.27;2.20;;;;;;;29.50;32.65;99714.27;2120182;82;31892;-74
2022/06/08 11:26:23;;;;;;;3.60;1.95;;;;;;;29.47;33.16;99714.69;2149189;82;33014;-72
2022/06/08 11:29:39;;;;;;;2.47;2.27;;;;;;;29.46;32.85;99717.97;2149103;82;30291;-69
2022/06/08 11:32:58;;;;;;;3.98;1.95;;;;;;;29.45;32.03;99716.30;2148898;82;27718;-72
2022/06/08 11:36:17;;;;;;;3.00;2.08;;;;;;;29.47;32.94;99706.41;2150583;81;28752;-68
2022/06/08 11:39:28;;;;;;;3.15;1.87;;;;;;;29.53;32.12;99706.94;2151859;82;32320;-69
2022/06/08 11:42:35;;;;;;;3.42;2.10;;;;;;;29.36;32.01;99703.26;2151932;82;33448;-70
2022/06/08 11:45:51;;;;;;;2.98;1.75;;;;;;;29.17;31.60;99703.55;2152022;82;30587;-69
2022/06/08 11:48:54;;;;;;;1.77;1.50;;;;;;;29.08;31.48;99699.32;2152349;82;27707;-71
2022/06/08 11:51:56;;;;;;;1.82;1.70;;;;;;;28.89;31.43;99697.73;2152688;82;29906;-70
2022/06/08 11:55:21;;;;;;;4.40;2.17;;;;;;;28.73;31.49;99697.59;2152019;82;31803;-70
2022/06/08 11:58:28;;;;;;;2.22;2.00;;;;;;;28.71;31.45;99701.60;2151951;82;34186;-70
2022/06/08 12:01:46;;;;;;;3.62;1.82;;;;;;;28.82;32.24;99699.62;2152435;82;29519;-70
2022/06/08 12:04:52;;;;;;;2.30;2.10;;;;;;;29.02;32.01;99695.52;2127235;82;27779;-68
2022/06/08 12:08:08;;;;;;;3.92;2.30;;;;;;;29.23;31.58;99686.66;2152468;82;29488;-71
2022/06/08 12:11:12;;;;;;;4.37;2.55;;;;;;;29.18;31.75;99690.08;2152379;82;31019;-71
2022/06/08 12:14:34;;;;;;;2.75;1.92;;;;;;;29.24;32.06;99687.84;2152201;82;32994;-67
2022/06/08 12:17:38;;;;;;;4.60;2.45;;;;;;;29.44;32.22;99678.72;2151989;82;30225;-72
2022/06/08 12:20:41;;;;;;;3.70;3.00;;;;;;;29.51;31.44;99676.78;2152464;82;27633;-71
2022/06/08 12:24:00;;;;;;;2.92;2.52;;;;;;;29.37;31.86;99683.39;2152399;82;28827;-73
2022/06/08 12:27:22;;;;;;;2.35;2.02;;;;;;;29.35;31.82;99676.72;2151163;82;32238;-74
2022/06/08 12:30:32;;;;;;;3.55;2.37;;;;;;;29.24;31.71;99667.16;2152167;82;33090;-70
2022/06/08 12:33:34;;;;;;;3.08;2.22;;;;;;;29.19;31.91;99661.42;2151150;82;29378;-71
2022/06/08 12:36:36;;;;;;;2.08;1.85;;;;;;;29.06;31.87;99660.91;2149899;82;27637;-71
2022/06/08 12:39:40;;;;;;;2.80;2.20;;;;;;;29.02;31.68;99660.17;2148840;82;29295;-68
2022/06/08 12:43:12;;;;;;;5.08;1.92;;;;;;;29.05;32.13;99661.12;2210637;80;31864;-66
2022/06/08 12:46:25;;;;;;;5.05;2.37;;;;;;;29.13;32.11;99661.44;2211197;80;31958;-70
2022/06/08 12:49:41;;;;;;;3.67;2.73;;;;;;;29.15;32.31;99653.25;2210907;80;30501;-71
2022/06/08 12:52:45;;;;;;;5.35;2.90;;;;;;;29.13;32.87;99655.38;2211003;80;27598;-67
2022/06/08 12:55:48;;;;;;;5.22;2.55;;;;;;;29.13;33.37;99658.14;2211258;80;32319;-72
2022/06/08 12:58:52;;;;;;;5.17;2.80;;;;;;;29.14;33.70;99652.11;2211230;80;31823;-70
2022/06/08 13:01:56;;;;;;;3.30;3.00;;;;;;;29.21;34.15;99657.06;2210827;80;33581;-71
2022/06/08 13:05:00;;;;;;;4.47;3.20;;;;;;;29.24;34.84;99650.61;2210969;80;30011;-72
2022/06/08 13:08:03;;;;;;;4.67;3.20;;;;;;;29.35;35.17;99650.52;2211071;80;27622;-71
2022/06/08 13:11:10;;;;;;;3.90;3.03;;;;;;;29.42;35.30;99650.49;2210828;80;29551;-72
2022/06/08 13:14:16;;;;;;;4.55;3.22;;;;;;;29.44;35.39;99648.88;2182825;80;31028;-71
2022/06/08 13:17:20;;;;;;;6.67;3.08;;;;;;;29.48;35.46;99652.37;2210824;80;33037;-72
2022/06/08 13:20:28;;;;;;;3.65;3.00;;;;;;;29.58;35.41;99649.70;2211090;80;29977;-71
2022/06/08 13:23:31;;;;;;;4.53;2.98;;;;;;;29.53;35.24;99647.05;2210592;80;27593;-72
2022/06/08 13:26:34;;;;;;;7.25;3.00;;;;;;;29.50;35.29;99642.51;2211032;80;31999;-73
2022/06/08 13:29:37;;;;;;;4.45;2.80;;;;;;;29.46;35.51;99650.90;2211210;80;31008;-71
2022/06/08 13:32:39;;;;;;;4.17;2.83;;;;;;;29.36;35.35;99646.69;2210872;80;33005;-70
2022/06/08 13:35:42;;;;;;;5.87;2.98;;;;;;;29.13;35.65;99640.75;2210740;80;29321;-72
2022/06/08 13:38:45;;;;;;;2.65;2.45;;;;;;;29.09;36.31;99638.96;2211149;80;27605;-71
2022/06/08 13:41:48;;;;;;;11.45;3.02;;;;;;;29.08;36.48;99639.48;2210597;80;28863;-71
2022/06/08 13:44:53;;;;;;;6.25;3.00;;;;;;;29.08;36.59;99636.72;2211113;80;31038;-72
2022/06/08 13:48:00;;;;;;;3.70;2.60;;;;;;;29.09;36.09;99637.58;2210665;80;34146;-72
2022/06/08 13:51:03;;;;;;;2.75;2.45;;;;;;;29.00;36.36;99636.09;2210967;80;29375;-71
2022/06/08 13:54:07;;;;;;;7.87;3.27;;;;;;;29.01;36.34;99632.27;2210995;80;27614;-71
2022/06/08 13:57:13;;;;;;;2.67;2.47;;;;;;;29.04;36.33;99627.72;2211130;80;28641;-71
2022/06/08 14:00:18;;;;;;;2.52;2.30;;;;;;;28.95;35.76;99624.33;2210895;80;31824;-69
2022/06/08 14:03:25;;;;;;;3.20;2.80;;;;;;;28.88;36.31;99622.09;2210475;80;32997;-71
2022/06/08 14:13:16;;;;;;;2.90;2.70;;;;;;;28.89;36.44;99615.53;2154441;82;30096;-70
2022/06/08 14:16:20;;;;;;;3.05;2.80;;;;;;;29.04;36.49;99604.27;2154287;82;31157;-69
2022/06/08 14:19:33;;;;;;;4.45;2.80;;;;;;;29.15;36.52;99606.91;2154238;82;34286;-70
2022/06/08 14:22:36;;;;;;;2.95;2.50;;;;;;;29.19;36.06;99602.66;2154036;82;29836;-68
2022/06/08 14:25:38;;;;;;;3.92;2.67;;;;;;;29.05;36.08;99601.28;2154695;82;27705;-72
2022/06/08 14:28:42;;;;;;;4.37;2.62;;;;;;;29.06;36.26;99589.74;2154755;82;29465;-71
2022/06/08 14:31:45;;;;;;;4.55;2.70;;;;;;;29.01;36.14;99587.64;2154745;82;31245;-70
2022/06/08 14:34:48;;;;;;;2.80;2.60;;;;;;;28.88;35.73;99590.39;2155020;82;32961;-71
2022/06/08 14:37:51;;;;;;;4.10;3.10;;;;;;;28.63;35.57;99588.28;2154658;82;29498;-71
2022/06/08 14:40:55;;;;;;;5.30;3.00;;;;;;;28.42;35.89;99594.85;2155236;82;27659;-70
2022/06/08 14:43:58;;;;;;;11.12;3.25;;;;;;;28.28;35.85;99589.84;2154968;82;28646;-67
2022/06/08 14:47:05;;;;;;;4.50;3.00;;;;;;;28.05;36.07;99580.02;2154401;82;31957;-72
2022/06/08 14:50:08;;;;;;;5.40;3.25;;;;;;;27.74;36.03;99575.41;2154398;82;33734;-69
2022/06/08 14:53:12;;;;;;;5.30;2.60;;;;;;;27.40;36.43;99580.42;2154892;82;29388;-67
2022/06/08 14:56:25;;;;;;;3.27;2.83;;;;;;;27.10;36.49;99574.69;2155108;82;27762;-72
2022/06/08 14:59:29;;;;;;;5.70;2.83;;;;;;;26.80;36.83;99569.94;2154826;82;29479;-71